Portada
METAR-TAF:

METAR-TAF

Aeroports :

Aupaluk, Quebec, Canadà

latitud: 59-17-48N, longitud: 069-35-59W, altitud: 35 m

Observació

L'informe es va fer fa 40 minuts, a les 20:00 UTC
Vent 10 kt del Nord/Nord-Est
Temperatura -19°C
Humitat 70%
Pressió 1020 hPa
Visibilitat: 24.1 km
Núvols disperses a una alçada de 1200 ft
cristalls de gel

METAR: CYLA 282000Z 02010KT 15SM IC SCT012 M19/M23 A3011 RMK SF3 SNW/CVR TRACE LOOSE LAST STFD OBS/NXT 291300Z SLP202

Hora: 15:40 (20:40 UTC)


TAF: manca

Observacions i pronòstics meteorològics de més de 4000 aeroports (METAR i TAF).

Les estacions disponibles són els punts grocs i vermells al mapa.

Posi el ratolí al punt desitjat per veure el nom de l'estació.

Feu clic per veure les observacions i els pronòstics meteorològics.

Per canviar el mapa: feu clic els botons verds amb una creu de color negre per apropar; al botó verd amb un guió per allunyar la imatge; o en les fletxes verdes per a mapes adjacents.


METAR-TAF: